createdAt,value
2023-03-04T00:01:52.819Z,33.54
2023-03-04T00:04:19.586Z,35.55
2023-03-04T00:06:46.336Z,35.62
2023-03-04T00:09:13.095Z,37.80
2023-03-04T00:11:39.924Z,36.54
2023-03-04T00:14:06.709Z,34.83
2023-03-04T00:16:33.520Z,34.39
2023-03-04T00:19:00.269Z,34.04
2023-03-04T00:21:27.026Z,33.78
2023-03-04T00:23:53.832Z,33.74
2023-03-04T00:26:20.646Z,33.56
2023-03-04T00:28:47.389Z,33.41
2023-03-04T00:31:14.312Z,33.48
2023-03-04T00:33:43.317Z,33.28
2023-03-04T00:36:10.183Z,33.02
2023-03-04T00:38:36.907Z,33.10
2023-03-04T00:41:03.698Z,32.82
2023-03-04T00:43:31.393Z,32.95
2023-03-04T00:45:58.158Z,32.97
2023-03-04T00:48:25.013Z,32.83
2023-03-04T00:50:53.779Z,33.00
2023-03-04T00:53:20.551Z,32.63
2023-03-04T00:55:47.352Z,32.67
2023-03-04T00:58:14.101Z,33.52
2023-03-04T01:00:40.837Z,34.97
2023-03-04T01:03:07.585Z,35.74
2023-03-04T01:05:35.792Z,36.92
2023-03-04T01:08:02.598Z,35.77
2023-03-04T01:10:29.371Z,34.88
2023-03-04T01:12:56.098Z,34.41
2023-03-04T01:15:22.868Z,33.60
2023-03-04T01:17:49.651Z,33.71
2023-03-04T01:20:16.450Z,33.47
2023-03-04T01:22:43.227Z,33.28
2023-03-04T01:25:10.008Z,33.05
2023-03-04T01:27:36.781Z,33.16
2023-03-04T01:30:03.561Z,32.93
2023-03-04T01:32:30.344Z,33.15
2023-03-04T01:34:57.112Z,32.83
2023-03-04T01:37:23.850Z,32.84
2023-03-04T01:39:50.618Z,32.77
2023-03-04T01:42:17.367Z,32.72
2023-03-04T01:44:44.129Z,32.69
2023-03-04T01:47:10.893Z,32.71
2023-03-04T01:49:37.647Z,33.87
2023-03-04T01:52:04.391Z,35.09
2023-03-04T01:54:31.149Z,35.88
2023-03-04T01:56:58.628Z,36.64
2023-03-04T01:59:25.420Z,35.98
2023-03-04T02:01:52.283Z,34.97
2023-03-04T02:04:19.093Z,34.20
2023-03-04T02:06:45.891Z,34.12
2023-03-04T02:09:12.685Z,33.86
2023-03-04T02:11:39.451Z,33.79
2023-03-04T02:14:06.194Z,33.52
2023-03-04T02:16:33.010Z,33.11
2023-03-04T02:18:59.759Z,33.09
2023-03-04T02:21:26.556Z,33.12
2023-03-04T02:23:53.312Z,32.93
2023-03-04T02:26:20.200Z,33.10
2023-03-04T02:28:46.998Z,32.63
2023-03-04T02:31:13.944Z,32.88
2023-03-04T02:33:40.696Z,32.72
2023-03-04T02:36:07.429Z,32.71
2023-03-04T02:38:34.177Z,33.01
2023-03-04T02:41:00.947Z,32.51
2023-03-04T02:43:27.678Z,32.74
2023-03-04T02:45:54.518Z,32.84
2023-03-04T02:48:21.269Z,34.73
2023-03-04T02:50:48.054Z,34.44
2023-03-04T02:53:15.432Z,35.54
2023-03-04T02:55:43.485Z,35.91
2023-03-04T02:58:10.255Z,35.44
2023-03-04T03:00:37.146Z,34.85
2023-03-04T03:03:04.002Z,33.97
2023-03-04T03:05:30.833Z,33.56
2023-03-04T03:07:57.673Z,33.44
2023-03-04T03:10:24.487Z,33.39
2023-03-04T03:12:51.231Z,33.18
2023-03-04T03:15:17.989Z,33.22
2023-03-04T03:17:44.718Z,33.06
2023-03-04T03:20:11.524Z,32.77
2023-03-04T03:22:38.309Z,32.94
2023-03-04T03:25:05.100Z,32.82
2023-03-04T03:27:31.830Z,32.72
2023-03-04T03:29:58.593Z,32.58
2023-03-04T03:32:25.368Z,32.73
2023-03-04T03:34:52.110Z,32.79
2023-03-04T03:37:18.890Z,32.76
2023-03-04T03:39:45.635Z,34.80
2023-03-04T03:42:12.403Z,34.69
2023-03-04T03:44:39.155Z,36.06
2023-03-04T03:47:05.917Z,35.99
2023-03-04T03:49:32.663Z,35.10
2023-03-04T03:51:59.459Z,34.46
2023-03-04T03:54:26.198Z,34.04
2023-03-04T03:56:53.023Z,33.75
2023-03-04T03:59:19.809Z,33.31
2023-03-04T04:01:46.561Z,33.50
2023-03-04T04:04:13.294Z,33.03
2023-03-04T04:06:40.094Z,32.99
2023-03-04T04:09:06.880Z,33.14
2023-03-04T04:11:33.622Z,32.85
2023-03-04T04:14:00.377Z,32.97
2023-03-04T04:16:27.145Z,32.53
2023-03-04T04:18:53.891Z,32.61
2023-03-04T04:21:20.739Z,32.76
2023-03-04T04:23:47.474Z,32.63
2023-03-04T04:26:14.251Z,32.74
2023-03-04T04:28:41.023Z,32.83
2023-03-04T04:31:07.830Z,34.79
2023-03-04T04:33:34.621Z,35.03
2023-03-04T04:36:01.612Z,36.54
2023-03-04T04:38:28.365Z,36.16
2023-03-04T04:40:55.103Z,34.66
2023-03-04T04:43:21.880Z,34.30
2023-03-04T04:45:48.664Z,33.84
2023-03-04T04:48:15.415Z,33.65
2023-03-04T04:50:42.160Z,33.35
2023-03-04T04:53:08.903Z,33.37
2023-03-04T04:55:35.671Z,33.10
2023-03-04T04:58:02.435Z,33.06
2023-03-04T05:00:29.178Z,32.77
2023-03-04T05:02:56.005Z,32.92
2023-03-04T05:05:22.916Z,32.51
2023-03-04T05:07:49.653Z,32.75
2023-03-04T05:10:16.441Z,32.90
2023-03-04T05:12:43.353Z,32.67
2023-03-04T05:15:10.223Z,32.55
2023-03-04T05:17:36.993Z,32.79
2023-03-04T05:20:04.227Z,34.49
2023-03-04T05:22:31.004Z,34.86
2023-03-04T05:24:57.812Z,36.00
2023-03-04T05:27:24.564Z,36.87
2023-03-04T05:29:51.382Z,36.64
2023-03-04T05:32:18.138Z,35.16
2023-03-04T05:34:44.944Z,34.39
2023-03-04T05:37:11.677Z,33.58
2023-03-04T05:39:38.492Z,33.58
2023-03-04T05:42:05.251Z,33.57
2023-03-04T05:44:31.983Z,33.09
2023-03-04T05:46:58.716Z,33.06
2023-03-04T05:49:25.474Z,33.19
2023-03-04T05:51:52.270Z,32.89
2023-03-04T05:54:19.130Z,32.96
2023-03-04T05:56:45.892Z,32.83
2023-03-04T05:59:12.639Z,32.73
2023-03-04T06:01:39.390Z,32.71
2023-03-04T06:04:06.222Z,32.69
2023-03-04T06:06:32.979Z,32.70
2023-03-04T06:09:00.281Z,32.36
2023-03-04T06:11:27.081Z,32.40
2023-03-04T06:13:53.828Z,32.28
2023-03-04T06:16:20.636Z,33.68
2023-03-04T06:18:47.432Z,34.81
2023-03-04T06:21:14.180Z,35.40
2023-03-04T06:23:41.903Z,36.11
2023-03-04T06:26:12.022Z,35.96
2023-03-04T06:28:38.768Z,34.91
2023-03-04T06:31:05.638Z,34.15
2023-03-04T06:33:32.451Z,33.75
2023-03-04T06:35:59.272Z,33.50
2023-03-04T06:38:26.065Z,33.03
2023-03-04T06:40:54.773Z,32.99
2023-03-04T06:43:22.800Z,32.96
2023-03-04T06:45:49.661Z,32.84
2023-03-04T06:48:16.502Z,32.73
2023-03-04T06:50:43.264Z,32.76
2023-03-04T06:53:10.037Z,32.67
2023-03-04T06:55:36.833Z,32.54
2023-03-04T06:58:03.655Z,32.42
2023-03-04T07:00:30.501Z,32.40
2023-03-04T07:02:57.294Z,32.35
2023-03-04T07:05:24.067Z,32.32
2023-03-04T07:07:50.862Z,32.31
2023-03-04T07:10:17.623Z,32.69
2023-03-04T07:12:44.362Z,34.66
2023-03-04T07:15:11.127Z,34.52
2023-03-04T07:17:37.886Z,35.82
2023-03-04T07:20:04.611Z,35.39
2023-03-04T07:22:31.400Z,34.45
2023-03-04T07:24:58.174Z,33.80
2023-03-04T07:27:25.429Z,33.62
2023-03-04T07:29:52.191Z,33.20
2023-03-04T07:32:19.069Z,32.94
2023-03-04T07:34:45.945Z,32.83
2023-03-04T07:37:12.704Z,32.66
2023-03-04T07:39:39.464Z,32.75
2023-03-04T07:42:06.199Z,32.56
2023-03-04T07:44:32.949Z,32.86
2023-03-04T07:46:59.710Z,32.46
2023-03-04T07:49:26.477Z,32.49
2023-03-04T07:51:53.441Z,32.52
2023-03-04T07:54:20.344Z,32.43
2023-03-04T07:56:47.131Z,32.66
2023-03-04T07:59:13.896Z,32.25
2023-03-04T08:01:40.648Z,35.04
2023-03-04T08:04:07.532Z,35.61
2023-03-04T08:06:34.377Z,37.28
2023-03-04T08:09:01.181Z,36.15
2023-03-04T08:11:28.008Z,34.79
2023-03-04T08:13:54.737Z,34.02
2023-03-04T08:16:21.515Z,33.56
2023-03-04T08:18:48.423Z,33.25
2023-03-04T08:21:15.268Z,33.16
2023-03-04T08:23:42.522Z,33.21
2023-03-04T08:26:09.380Z,33.11
2023-03-04T08:28:36.131Z,32.90
2023-03-04T08:31:02.965Z,32.58
2023-03-04T08:33:29.736Z,32.63
2023-03-04T08:35:56.517Z,32.54
2023-03-04T08:38:23.418Z,32.58
2023-03-04T08:40:50.395Z,32.55
2023-03-04T08:43:17.151Z,32.46
2023-03-04T08:45:44.014Z,32.58
2023-03-04T08:48:10.867Z,32.30
2023-03-04T08:50:37.769Z,32.70
2023-03-04T08:53:04.536Z,35.27
2023-03-04T08:55:31.308Z,35.83
2023-03-04T08:57:58.121Z,36.80
2023-03-04T09:00:25.208Z,35.63
2023-03-04T09:02:51.969Z,34.77
2023-03-04T09:05:18.775Z,34.19
2023-03-04T09:07:45.621Z,33.76
2023-03-04T09:10:12.354Z,33.33
2023-03-04T09:12:39.199Z,33.13
2023-03-04T09:15:11.675Z,32.99
2023-03-04T09:17:38.772Z,33.06
2023-03-04T09:20:05.815Z,33.10
2023-03-04T09:22:32.698Z,33.03
2023-03-04T09:24:59.472Z,32.81
2023-03-04T09:27:26.282Z,32.72
2023-03-04T09:29:53.030Z,32.33
2023-03-04T09:32:19.901Z,32.52
2023-03-04T09:34:46.715Z,32.84
2023-03-04T09:37:13.551Z,32.57
2023-03-04T09:39:40.305Z,32.40
2023-03-04T09:42:07.079Z,34.52
2023-03-04T09:44:33.924Z,34.94
2023-03-04T09:47:00.680Z,36.15
2023-03-04T09:49:27.472Z,36.44
2023-03-04T09:51:54.236Z,35.43
2023-03-04T09:54:21.003Z,34.54
2023-03-04T09:56:47.726Z,34.15
2023-03-04T09:59:14.494Z,33.73
2023-03-04T10:01:41.249Z,33.25
2023-03-04T10:04:09.534Z,33.29
2023-03-04T10:06:36.330Z,32.99
2023-03-04T10:09:03.058Z,32.91
2023-03-04T10:11:29.825Z,32.74
2023-03-04T10:13:56.595Z,32.89
2023-03-04T10:16:23.382Z,32.71
2023-03-04T10:18:50.178Z,32.42
2023-03-04T10:21:16.995Z,32.40
2023-03-04T10:23:43.817Z,32.63
2023-03-04T10:26:10.572Z,32.51
2023-03-04T10:28:37.328Z,32.53
2023-03-04T10:31:04.051Z,32.80
2023-03-04T10:33:30.924Z,34.55
2023-03-04T10:35:57.736Z,34.30
2023-03-04T10:38:24.581Z,35.42
2023-03-04T10:40:51.400Z,36.38
2023-03-04T10:43:18.195Z,36.76
2023-03-04T10:45:45.606Z,37.22
2023-03-04T10:48:12.373Z,37.67
2023-03-04T10:50:39.140Z,37.13
2023-03-04T10:53:05.905Z,37.64
2023-03-04T10:55:32.643Z,37.05
2023-03-04T10:57:59.409Z,37.27
2023-03-04T11:00:26.353Z,36.98
2023-03-04T11:02:53.112Z,36.40
2023-03-04T11:05:20.192Z,35.37
2023-03-04T11:07:55.088Z,34.84
2023-03-04T11:10:23.333Z,34.49
2023-03-04T11:12:50.068Z,34.15
2023-03-04T11:15:16.961Z,34.11
2023-03-04T11:17:43.725Z,33.70
2023-03-04T11:20:10.479Z,33.62
2023-03-04T11:22:37.310Z,33.57
2023-03-04T11:25:04.115Z,33.50
2023-03-04T11:27:30.840Z,33.18
2023-03-04T11:29:57.608Z,33.17
2023-03-04T11:32:24.386Z,33.04
2023-03-04T11:34:51.180Z,33.23
2023-03-04T11:37:17.994Z,33.30
2023-03-04T11:39:44.743Z,33.12
2023-03-04T11:42:11.525Z,33.00
2023-03-04T11:44:38.255Z,32.94
2023-03-04T11:47:05.007Z,32.87
2023-03-04T11:49:31.747Z,32.75
2023-03-04T11:51:58.509Z,32.73
2023-03-04T11:54:25.289Z,32.73
2023-03-04T11:56:52.035Z,32.76
2023-03-04T11:59:19.983Z,32.61
2023-03-04T12:01:46.732Z,32.57
2023-03-04T12:04:13.602Z,32.49
2023-03-04T12:06:40.453Z,32.62
2023-03-04T12:09:07.211Z,32.22
2023-03-04T12:11:34.833Z,32.45
2023-03-04T12:14:01.624Z,32.43
2023-03-04T12:16:28.389Z,32.34
2023-03-04T12:18:55.127Z,32.96
2023-03-04T12:21:21.857Z,34.62
2023-03-04T12:23:48.634Z,34.65
2023-03-04T12:26:15.946Z,36.19
2023-03-04T12:28:42.707Z,36.87
2023-03-04T12:31:09.564Z,36.94
2023-03-04T12:33:36.360Z,35.15
2023-03-04T12:36:03.191Z,34.46
2023-03-04T12:38:30.035Z,33.99
2023-03-04T12:40:56.831Z,33.83
2023-03-04T12:43:23.597Z,33.64
2023-03-04T12:45:50.441Z,33.39
2023-03-04T12:48:17.162Z,33.39
2023-03-04T12:50:43.944Z,33.10
2023-03-04T12:53:10.697Z,33.38
2023-03-04T12:55:37.480Z,32.88
2023-03-04T12:58:04.209Z,32.92
2023-03-04T13:00:30.972Z,32.82
2023-03-04T13:02:58.444Z,32.53
2023-03-04T13:05:25.377Z,32.67
2023-03-04T13:07:52.211Z,32.73
2023-03-04T13:10:19.986Z,32.68
2023-03-04T13:12:46.765Z,32.29
2023-03-04T13:15:13.564Z,32.93
2023-03-04T13:17:43.134Z,35.44
2023-03-04T13:20:10.289Z,35.52
2023-03-04T13:22:37.045Z,36.92
2023-03-04T13:25:03.824Z,36.96
2023-03-04T13:27:30.548Z,35.32
2023-03-04T13:29:57.961Z,34.54
2023-03-04T13:32:24.829Z,34.08
2023-03-04T13:34:53.676Z,33.76
2023-03-04T13:37:20.420Z,33.63
2023-03-04T13:39:47.142Z,33.52
2023-03-04T13:42:13.872Z,33.26
2023-03-04T13:44:40.643Z,33.20
2023-03-04T13:47:07.371Z,32.96
2023-03-04T13:49:34.516Z,33.13
2023-03-04T13:52:01.271Z,33.08
2023-03-04T13:54:28.669Z,33.04
2023-03-04T13:56:56.515Z,32.96
2023-03-04T13:59:23.332Z,33.17
2023-03-04T14:01:50.159Z,32.77
2023-03-04T14:04:16.956Z,32.64
2023-03-04T14:06:43.757Z,32.76
2023-03-04T14:09:10.505Z,32.57
2023-03-04T14:11:39.471Z,34.15
2023-03-04T14:14:06.366Z,35.52
2023-03-04T14:16:33.249Z,36.21
2023-03-04T14:19:00.133Z,37.02
2023-03-04T14:21:27.239Z,36.34
2023-03-04T14:23:53.976Z,34.97
2023-03-04T14:26:20.729Z,34.21
2023-03-04T14:28:47.580Z,33.98
2023-03-04T14:31:14.401Z,33.88
2023-03-04T14:33:41.156Z,33.46
2023-03-04T14:36:07.898Z,33.38
2023-03-04T14:38:34.628Z,33.45
2023-03-04T14:41:01.438Z,33.21
2023-03-04T14:43:28.192Z,33.23
2023-03-04T14:45:55.000Z,32.92
2023-03-04T14:48:21.751Z,33.05
2023-03-04T14:50:48.548Z,32.90
2023-03-04T14:53:15.354Z,32.76
2023-03-04T14:55:42.094Z,32.79
2023-03-04T14:58:08.907Z,32.88
2023-03-04T15:00:35.704Z,32.74
2023-03-04T15:03:02.522Z,32.91
2023-03-04T15:05:29.360Z,34.83
2023-03-04T15:07:56.116Z,34.61
2023-03-04T15:10:22.998Z,36.24
2023-03-04T15:12:49.768Z,36.58
2023-03-04T15:15:16.496Z,35.32
2023-03-04T15:17:45.157Z,34.69
2023-03-04T15:20:11.899Z,34.17
2023-03-04T15:22:38.622Z,34.07
2023-03-04T15:25:05.354Z,33.72
2023-03-04T15:27:32.484Z,33.32
2023-03-04T15:29:59.461Z,33.37
2023-03-04T15:32:26.289Z,33.26
2023-03-04T15:34:53.131Z,33.19
2023-03-04T15:37:19.861Z,32.95
2023-03-04T15:39:46.590Z,32.88
2023-03-04T15:42:13.542Z,33.13
2023-03-04T15:44:40.292Z,32.64
2023-03-04T15:47:08.715Z,32.59
2023-03-04T15:49:35.500Z,32.69
2023-03-04T15:52:02.245Z,32.67
2023-03-04T15:54:28.966Z,34.88
2023-03-04T15:56:58.199Z,35.02
2023-03-04T15:59:24.943Z,36.33
2023-03-04T16:01:51.713Z,36.92
2023-03-04T16:04:18.532Z,35.51
2023-03-04T16:06:45.329Z,34.70
2023-03-04T16:09:14.115Z,33.95
2023-03-04T16:11:42.079Z,33.79
2023-03-04T16:14:08.814Z,33.41
2023-03-04T16:16:35.637Z,33.56
2023-03-04T16:19:02.416Z,33.21
2023-03-04T16:21:29.161Z,33.07
2023-03-04T16:23:55.904Z,32.90
2023-03-04T16:26:22.677Z,32.71
2023-03-04T16:28:49.414Z,32.76
2023-03-04T16:31:16.420Z,32.85
2023-03-04T16:33:43.246Z,32.80
2023-03-04T16:36:10.045Z,32.69
2023-03-04T16:38:36.880Z,32.66
2023-03-04T16:41:03.658Z,32.60
2023-03-04T16:43:30.466Z,34.65
2023-03-04T16:45:57.239Z,34.27
2023-03-04T16:48:24.056Z,35.09
2023-03-04T16:50:51.420Z,36.45
2023-03-04T16:53:18.154Z,36.74
2023-03-04T16:55:44.912Z,36.77
2023-03-04T16:58:11.699Z,36.84
2023-03-04T17:00:38.482Z,36.69
2023-03-04T17:03:05.303Z,35.27
2023-03-04T17:05:32.111Z,34.65
2023-03-04T17:07:58.909Z,33.79
2023-03-04T17:10:25.690Z,33.55
2023-03-04T17:12:52.416Z,33.63
2023-03-04T17:15:19.156Z,33.51
2023-03-04T17:17:45.943Z,33.35
2023-03-04T17:20:12.724Z,33.17
2023-03-04T17:22:39.476Z,33.10
2023-03-04T17:25:06.248Z,33.36
2023-03-04T17:27:32.979Z,32.82
2023-03-04T17:29:59.851Z,33.10
2023-03-04T17:32:28.426Z,32.84
2023-03-04T17:34:55.653Z,32.74
2023-03-04T17:37:22.578Z,32.93
2023-03-04T17:39:49.441Z,32.67
2023-03-04T17:42:16.193Z,32.82
2023-03-04T17:44:42.941Z,32.62
2023-03-04T17:47:09.782Z,32.46
2023-03-04T17:49:36.523Z,32.52
2023-03-04T17:52:03.346Z,32.56
2023-03-04T17:54:30.111Z,32.59
2023-03-04T17:56:56.836Z,34.64
2023-03-04T17:59:23.593Z,34.56
2023-03-04T18:01:52.893Z,35.40
2023-03-04T18:04:20.807Z,36.31
2023-03-04T18:06:47.609Z,36.68
2023-03-04T18:09:14.355Z,36.69
2023-03-04T18:11:41.151Z,36.49
2023-03-04T18:14:07.942Z,35.30
2023-03-04T18:16:34.741Z,34.59
2023-03-04T18:19:02.083Z,34.05
2023-03-04T18:21:28.817Z,33.65
2023-03-04T18:23:55.578Z,33.37
2023-03-04T18:26:23.339Z,33.52
2023-03-04T18:28:50.127Z,33.15
2023-03-04T18:31:16.937Z,33.21
2023-03-04T18:33:43.747Z,33.17
2023-03-04T18:36:11.414Z,32.71
2023-03-04T18:38:38.173Z,32.83
2023-03-04T18:41:04.909Z,32.49
2023-03-04T18:43:31.731Z,32.87
2023-03-04T18:45:58.624Z,32.54
2023-03-04T18:48:25.380Z,32.73
2023-03-04T18:50:53.782Z,32.38
2023-03-04T18:53:20.562Z,32.28
2023-03-04T18:55:47.367Z,32.29
2023-03-04T18:58:14.095Z,32.33
2023-03-04T19:00:40.911Z,32.37
2023-03-04T19:03:07.639Z,32.65
2023-03-04T19:05:34.528Z,33.55
2023-03-04T19:08:01.378Z,34.08
2023-03-04T19:10:28.972Z,35.29
2023-03-04T19:12:57.374Z,35.91
2023-03-04T19:15:24.118Z,34.65
2023-03-04T19:17:50.943Z,34.52
2023-03-04T19:20:17.686Z,33.82
2023-03-04T19:22:44.491Z,33.58
2023-03-04T19:25:11.760Z,33.21
2023-03-04T19:27:38.618Z,33.30
2023-03-04T19:30:05.419Z,33.05
2023-03-04T19:32:32.285Z,33.02
2023-03-04T19:34:59.063Z,32.73
2023-03-04T19:37:25.821Z,32.43
2023-03-04T19:39:54.300Z,32.66
2023-03-04T19:42:21.099Z,32.73
2023-03-04T19:44:47.925Z,32.48
2023-03-04T19:47:14.668Z,32.49
2023-03-04T19:49:41.419Z,32.47
2023-03-04T19:52:08.285Z,32.48
2023-03-04T19:54:35.114Z,32.50
2023-03-04T19:57:01.861Z,32.33
2023-03-04T19:59:28.641Z,34.22
2023-03-04T20:01:55.382Z,34.01
2023-03-04T20:04:22.187Z,35.17
2023-03-04T20:06:49.008Z,35.63
2023-03-04T20:09:16.451Z,35.74
2023-03-04T20:11:56.577Z,35.67
2023-03-04T20:14:24.290Z,36.71
2023-03-04T20:16:51.078Z,36.04
2023-03-04T20:19:17.850Z,34.76
2023-03-04T20:21:44.620Z,34.11
2023-03-04T20:24:11.638Z,33.48
2023-03-04T20:26:39.382Z,33.33
2023-03-04T20:29:06.194Z,33.40
2023-03-04T20:31:33.716Z,33.08
2023-03-04T20:34:00.469Z,33.03
2023-03-04T20:36:27.231Z,32.87
2023-03-04T20:39:02.559Z,32.72
2023-03-04T20:41:30.226Z,32.77
2023-03-04T20:43:57.015Z,32.49
2023-03-04T20:46:23.800Z,32.55
2023-03-04T20:48:50.569Z,32.41
2023-03-04T20:51:17.296Z,32.28
2023-03-04T20:53:44.020Z,32.53
2023-03-04T20:56:10.770Z,32.56
2023-03-04T20:58:37.500Z,32.32
2023-03-04T21:01:04.278Z,32.29
2023-03-04T21:03:31.050Z,32.28
2023-03-04T21:05:57.839Z,32.13
2023-03-04T21:08:24.603Z,32.26
2023-03-04T21:10:51.520Z,33.67
2023-03-04T21:13:21.306Z,33.61
2023-03-04T21:15:48.059Z,34.71
2023-03-04T21:18:14.827Z,35.25
2023-03-04T21:20:41.561Z,35.70
2023-03-04T21:23:08.287Z,36.57
2023-03-04T21:25:35.043Z,36.64
2023-03-04T21:28:01.789Z,36.63
2023-03-04T21:30:28.527Z,36.75
2023-03-04T21:32:55.369Z,36.50
2023-03-04T21:35:22.262Z,36.80
2023-03-04T21:37:49.010Z,35.62
2023-03-04T21:40:15.902Z,34.55
2023-03-04T21:42:42.632Z,34.13
2023-03-04T21:45:09.410Z,33.79
2023-03-04T21:47:36.339Z,33.65
2023-03-04T21:50:03.383Z,33.38
2023-03-04T21:52:30.302Z,33.35
2023-03-04T21:54:57.165Z,33.04
2023-03-04T21:57:23.899Z,32.98
2023-03-04T21:59:50.626Z,32.91
2023-03-04T22:02:17.580Z,32.89
2023-03-04T22:04:44.427Z,32.69
2023-03-04T22:07:11.153Z,32.50
2023-03-04T22:09:37.943Z,32.58
2023-03-04T22:12:04.691Z,32.45
2023-03-04T22:14:32.438Z,32.56
2023-03-04T22:16:59.282Z,32.54
2023-03-04T22:19:26.159Z,32.30
2023-03-04T22:21:52.933Z,32.17
2023-03-04T22:24:19.687Z,32.40
2023-03-04T22:26:46.416Z,32.43
2023-03-04T22:29:13.155Z,32.12
2023-03-04T22:31:40.003Z,32.12
2023-03-04T22:34:06.800Z,32.32
2023-03-04T22:36:33.794Z,32.06
2023-03-04T22:39:00.537Z,32.02
2023-03-04T22:41:27.280Z,31.94
2023-03-04T22:43:54.022Z,32.17
2023-03-04T22:46:21.194Z,32.04
2023-03-04T22:48:48.090Z,32.73
2023-03-04T22:51:14.925Z,34.15
2023-03-04T22:53:43.373Z,34.77
2023-03-04T22:56:10.150Z,35.02
2023-03-04T22:58:36.908Z,34.87
2023-03-04T23:01:03.804Z,34.36
2023-03-04T23:03:30.903Z,33.62
2023-03-04T23:05:57.825Z,33.55
2023-03-04T23:08:24.620Z,33.13
2023-03-04T23:10:51.387Z,33.05
2023-03-04T23:13:18.129Z,32.86
2023-03-04T23:15:45.018Z,32.68
2023-03-04T23:18:11.802Z,32.66
2023-03-04T23:20:42.058Z,32.57
2023-03-04T23:23:08.842Z,32.21
2023-03-04T23:25:35.597Z,32.25
2023-03-04T23:28:02.367Z,32.25
2023-03-04T23:30:29.163Z,32.31
2023-03-04T23:32:55.927Z,32.19
2023-03-04T23:35:22.702Z,32.16
2023-03-04T23:37:49.993Z,32.04
2023-03-04T23:40:16.774Z,32.05
2023-03-04T23:42:43.503Z,31.97
2023-03-04T23:45:10.361Z,33.48
2023-03-04T23:47:37.211Z,33.46
2023-03-04T23:50:04.089Z,34.00
2023-03-04T23:52:31.043Z,35.23
2023-03-04T23:54:57.754Z,35.65
2023-03-04T23:57:24.604Z,36.22
2023-03-04T23:59:51.368Z,36.84
